K27 EFHK-EFTU
Flight info
| Callsign | K27 |
|---|---|
| Flight time | 0h 47m |
| Altitude | 3000 |
| Route | LINTU LOHJA EVEKE |
| Aircraft | G115/L-SDGRY/S |
Departure
| Time | 2026-05-05 12:09 |
|---|---|
| Airport | Helsinki Vantaa Airport (EFHK) |
Arrival
| Time | 2026-05-05 12:56 |
|---|---|
| Airport | Turku Airport (EFTU) |
| Time | Latitude | Longitude | Altitude | Speed | Heading |
|---|---|---|---|---|---|
| 2026-05-05 12:02 | 60.30886 | 24.98002 | 162 ft | 0 kts | 192° |
| 2026-05-05 12:07 | 60.30875 | 24.98052 | 162 ft | 18 kts | 59° |
| 2026-05-05 12:08 | 60.30942 | 24.98191 | 161 ft | 19 kts | 59° |
| 2026-05-05 12:08 | 60.31069 | 24.98407 | 162 ft | 30 kts | 1° |
| 2026-05-05 12:08 | 60.31166 | 24.98358 | 162 ft | 0 kts | 333° |
| 2026-05-05 12:08 | 60.31227 | 24.98293 | 163 ft | 35 kts | 333° |
| 2026-05-05 12:09 | 60.31569 | 24.97971 | 278 ft | 56 kts | 337° |
| 2026-05-05 12:09 | 60.31994 | 24.97523 | 404 ft | 75 kts | 322° |
| 2026-05-05 12:09 | 60.32471 | 24.97015 | 631 ft | 82 kts | 320° |
| 2026-05-05 12:09 | 60.32999 | 24.96470 | 890 ft | 84 kts | 323° |
| 2026-05-05 12:10 | 60.33491 | 24.95861 | 1200 ft | 78 kts | 309° |
| 2026-05-05 12:10 | 60.33764 | 24.94975 | 1475 ft | 81 kts | 289° |
| 2026-05-05 12:10 | 60.33933 | 24.93791 | 1607 ft | 96 kts | 281° |
| 2026-05-05 12:10 | 60.34069 | 24.92420 | 1696 ft | 105 kts | 278° |
| 2026-05-05 12:11 | 60.34182 | 24.90873 | 1617 ft | 113 kts | 277° |
| 2026-05-05 12:11 | 60.34295 | 24.89298 | 1654 ft | 114 kts | 279° |
| 2026-05-05 12:11 | 60.34415 | 24.87702 | 1662 ft | 115 kts | 279° |
| 2026-05-05 12:11 | 60.34531 | 24.86090 | 1678 ft | 117 kts | 278° |
| 2026-05-05 12:12 | 60.34647 | 24.84463 | 1671 ft | 117 kts | 278° |
| 2026-05-05 12:12 | 60.34755 | 24.82829 | 1695 ft | 118 kts | 278° |
| 2026-05-05 12:12 | 60.34870 | 24.81164 | 1714 ft | 121 kts | 279° |
| 2026-05-05 12:12 | 60.35025 | 24.79464 | 1707 ft | 125 kts | 281° |
| 2026-05-05 12:13 | 60.35207 | 24.77746 | 1670 ft | 123 kts | 282° |
| 2026-05-05 12:13 | 60.35397 | 24.76088 | 1697 ft | 120 kts | 283° |
| 2026-05-05 12:13 | 60.35603 | 24.74468 | 1680 ft | 118 kts | 284° |
| 2026-05-05 12:13 | 60.35820 | 24.72885 | 1684 ft | 116 kts | 284° |
| 2026-05-05 12:14 | 60.36044 | 24.71330 | 1683 ft | 115 kts | 284° |
| 2026-05-05 12:14 | 60.36269 | 24.69780 | 1704 ft | 117 kts | 285° |
| 2026-05-05 12:14 | 60.36500 | 24.68223 | 1696 ft | 115 kts | 285° |
| 2026-05-05 12:14 | 60.36727 | 24.66651 | 1683 ft | 118 kts | 285° |
| 2026-05-05 12:15 | 60.36956 | 24.65022 | 1699 ft | 122 kts | 285° |
| 2026-05-05 12:15 | 60.37184 | 24.63352 | 1687 ft | 123 kts | 285° |
| 2026-05-05 12:15 | 60.37395 | 24.61697 | 1680 ft | 121 kts | 276° |
| 2026-05-05 12:15 | 60.37165 | 24.60074 | 1674 ft | 121 kts | 250° |
| 2026-05-05 12:16 | 60.36794 | 24.58568 | 1679 ft | 120 kts | 248° |
| 2026-05-05 12:16 | 60.36541 | 24.57567 | 1698 ft | 121 kts | 248° |
| 2026-05-05 12:16 | 60.36148 | 24.56032 | 1710 ft | 125 kts | 247° |
| 2026-05-05 12:16 | 60.35772 | 24.54531 | 1878 ft | 108 kts | 249° |
| 2026-05-05 12:17 | 60.35449 | 24.53284 | 2184 ft | 86 kts | 255° |
| 2026-05-05 12:17 | 60.35267 | 24.52071 | 2376 ft | 90 kts | 259° |
| 2026-05-05 12:17 | 60.35101 | 24.50868 | 2609 ft | 88 kts | 259° |
| 2026-05-05 12:17 | 60.34951 | 24.49743 | 2970 ft | 81 kts | 259° |
| 2026-05-05 12:18 | 60.34725 | 24.48505 | 2988 ft | 104 kts | 251° |
| 2026-05-05 12:18 | 60.34403 | 24.47107 | 2994 ft | 114 kts | 249° |
| 2026-05-05 12:18 | 60.34045 | 24.45627 | 3004 ft | 119 kts | 248° |
| 2026-05-05 12:18 | 60.33670 | 24.44115 | 3004 ft | 121 kts | 248° |
| 2026-05-05 12:19 | 60.33277 | 24.42634 | 2994 ft | 119 kts | 247° |
| 2026-05-05 12:19 | 60.32882 | 24.41164 | 2992 ft | 120 kts | 247° |
| 2026-05-05 12:19 | 60.32485 | 24.39676 | 3010 ft | 122 kts | 247° |
| 2026-05-05 12:19 | 60.32085 | 24.38165 | 2983 ft | 120 kts | 247° |
| 2026-05-05 12:20 | 60.31747 | 24.36892 | 2989 ft | 119 kts | 247° |
| 2026-05-05 12:20 | 60.31561 | 24.36196 | 3001 ft | 120 kts | 246° |
| 2026-05-05 12:20 | 60.31200 | 24.34837 | 3016 ft | 121 kts | 246° |
| 2026-05-05 12:20 | 60.30839 | 24.33273 | 3005 ft | 124 kts | 251° |
| 2026-05-05 12:21 | 60.30536 | 24.31655 | 3000 ft | 123 kts | 254° |
| 2026-05-05 12:21 | 60.30272 | 24.30039 | 2991 ft | 122 kts | 256° |
| 2026-05-05 12:21 | 60.30037 | 24.28522 | 3006 ft | 121 kts | 256° |
| 2026-05-05 12:21 | 60.29840 | 24.26918 | 2997 ft | 118 kts | 262° |
| 2026-05-05 12:22 | 60.29721 | 24.25272 | 3008 ft | 117 kts | 266° |
| 2026-05-05 12:22 | 60.29655 | 24.23658 | 3019 ft | 118 kts | 269° |
| 2026-05-05 12:22 | 60.29602 | 24.21991 | 3016 ft | 118 kts | 270° |
| 2026-05-05 12:22 | 60.29560 | 24.20348 | 3031 ft | 120 kts | 270° |
| 2026-05-05 12:23 | 60.29443 | 24.18676 | 3015 ft | 121 kts | 261° |
| 2026-05-05 12:23 | 60.29251 | 24.17028 | 3023 ft | 121 kts | 258° |
| 2026-05-05 12:23 | 60.29033 | 24.15391 | 3018 ft | 121 kts | 257° |
| 2026-05-05 12:23 | 60.28804 | 24.13767 | 3019 ft | 121 kts | 256° |
| 2026-05-05 12:24 | 60.28520 | 24.12156 | 3026 ft | 122 kts | 253° |
| 2026-05-05 12:24 | 60.28214 | 24.10542 | 3033 ft | 124 kts | 253° |
| 2026-05-05 12:24 | 60.27888 | 24.08930 | 3017 ft | 123 kts | 252° |
| 2026-05-05 12:24 | 60.27567 | 24.07340 | 3002 ft | 121 kts | 252° |
| 2026-05-05 12:25 | 60.27242 | 24.05786 | 3013 ft | 120 kts | 252° |
| 2026-05-05 12:25 | 60.26919 | 24.04232 | 3025 ft | 121 kts | 252° |
| 2026-05-05 12:25 | 60.26588 | 24.02655 | 3025 ft | 122 kts | 252° |
| 2026-05-05 12:25 | 60.26265 | 24.01069 | 3020 ft | 122 kts | 252° |
| 2026-05-05 12:26 | 60.25944 | 23.99495 | 3018 ft | 120 kts | 252° |
| 2026-05-05 12:26 | 60.25614 | 23.97970 | 3026 ft | 118 kts | 252° |
| 2026-05-05 12:26 | 60.25275 | 23.96455 | 3028 ft | 119 kts | 252° |
| 2026-05-05 12:26 | 60.24938 | 23.94930 | 3023 ft | 120 kts | 252° |
| 2026-05-05 12:27 | 60.24605 | 23.93387 | 3024 ft | 120 kts | 252° |
| 2026-05-05 12:27 | 60.24276 | 23.91863 | 3032 ft | 118 kts | 252° |
| 2026-05-05 12:27 | 60.23945 | 23.90340 | 3054 ft | 120 kts | 252° |
| 2026-05-05 12:27 | 60.23611 | 23.88791 | 3052 ft | 122 kts | 251° |
| 2026-05-05 12:28 | 60.23283 | 23.87201 | 3046 ft | 123 kts | 252° |
| 2026-05-05 12:28 | 60.22951 | 23.85633 | 3032 ft | 120 kts | 252° |
| 2026-05-05 12:28 | 60.22625 | 23.84082 | 3032 ft | 121 kts | 251° |
| 2026-05-05 12:28 | 60.22314 | 23.82538 | 3036 ft | 121 kts | 251° |
| 2026-05-05 12:29 | 60.22001 | 23.80979 | 3035 ft | 121 kts | 252° |
| 2026-05-05 12:29 | 60.21680 | 23.79457 | 3041 ft | 118 kts | 252° |
| 2026-05-05 12:29 | 60.21348 | 23.77935 | 3038 ft | 119 kts | 252° |
| 2026-05-05 12:29 | 60.21018 | 23.76413 | 3039 ft | 120 kts | 252° |
| 2026-05-05 12:30 | 60.20748 | 23.74832 | 3036 ft | 118 kts | 269° |
| 2026-05-05 12:30 | 60.20951 | 23.73249 | 3044 ft | 119 kts | 288° |
| 2026-05-05 12:30 | 60.21226 | 23.71677 | 3045 ft | 119 kts | 288° |
| 2026-05-05 12:30 | 60.21500 | 23.70121 | 3033 ft | 118 kts | 288° |
| 2026-05-05 12:31 | 60.21753 | 23.68541 | 3036 ft | 119 kts | 285° |
| 2026-05-05 12:31 | 60.21971 | 23.66929 | 3044 ft | 120 kts | 284° |
| 2026-05-05 12:31 | 60.22167 | 23.65292 | 3048 ft | 120 kts | 283° |
| 2026-05-05 12:31 | 60.22348 | 23.63654 | 3049 ft | 120 kts | 283° |
| 2026-05-05 12:32 | 60.22528 | 23.61994 | 3045 ft | 122 kts | 282° |
| 2026-05-05 12:32 | 60.22704 | 23.60357 | 3038 ft | 120 kts | 282° |
| 2026-05-05 12:32 | 60.22888 | 23.58745 | 3035 ft | 117 kts | 282° |
| 2026-05-05 12:32 | 60.23070 | 23.57151 | 3033 ft | 116 kts | 282° |
| 2026-05-05 12:33 | 60.23245 | 23.55568 | 3045 ft | 116 kts | 282° |
| 2026-05-05 12:33 | 60.23419 | 23.53969 | 3041 ft | 118 kts | 282° |
| 2026-05-05 12:33 | 60.23591 | 23.52366 | 3041 ft | 116 kts | 282° |
| 2026-05-05 12:33 | 60.23771 | 23.50776 | 3045 ft | 116 kts | 282° |
| 2026-05-05 12:34 | 60.23951 | 23.49187 | 3046 ft | 116 kts | 282° |
| 2026-05-05 12:34 | 60.24134 | 23.47580 | 3042 ft | 119 kts | 282° |
| 2026-05-05 12:34 | 60.24317 | 23.45950 | 3046 ft | 120 kts | 282° |
| 2026-05-05 12:34 | 60.24496 | 23.44308 | 3036 ft | 120 kts | 282° |
| 2026-05-05 12:35 | 60.24674 | 23.42674 | 3037 ft | 119 kts | 282° |
| 2026-05-05 12:35 | 60.24851 | 23.41046 | 3043 ft | 119 kts | 282° |
| 2026-05-05 12:35 | 60.25028 | 23.39420 | 3033 ft | 118 kts | 282° |
| 2026-05-05 12:35 | 60.25206 | 23.37809 | 3040 ft | 118 kts | 282° |
| 2026-05-05 12:36 | 60.25386 | 23.36199 | 3047 ft | 118 kts | 282° |
| 2026-05-05 12:36 | 60.25566 | 23.34595 | 3043 ft | 117 kts | 282° |
| 2026-05-05 12:36 | 60.25746 | 23.33001 | 3051 ft | 117 kts | 282° |
| 2026-05-05 12:36 | 60.25932 | 23.31404 | 3051 ft | 117 kts | 282° |
| 2026-05-05 12:37 | 60.26122 | 23.29801 | 3040 ft | 117 kts | 282° |
| 2026-05-05 12:37 | 60.26306 | 23.28212 | 3043 ft | 116 kts | 283° |
| 2026-05-05 12:37 | 60.26485 | 23.26636 | 3054 ft | 116 kts | 282° |
| 2026-05-05 12:37 | 60.26666 | 23.25063 | 3033 ft | 114 kts | 283° |
| 2026-05-05 12:38 | 60.26840 | 23.23486 | 3053 ft | 117 kts | 282° |
| 2026-05-05 12:38 | 60.27025 | 23.21883 | 3052 ft | 118 kts | 283° |
| 2026-05-05 12:38 | 60.27219 | 23.20268 | 3041 ft | 119 kts | 283° |
| 2026-05-05 12:38 | 60.27410 | 23.18665 | 3046 ft | 117 kts | 283° |
| 2026-05-05 12:39 | 60.27593 | 23.17094 | 3058 ft | 116 kts | 282° |
| 2026-05-05 12:39 | 60.27779 | 23.15514 | 3047 ft | 116 kts | 283° |
| 2026-05-05 12:39 | 60.27958 | 23.13944 | 3049 ft | 115 kts | 283° |
| 2026-05-05 12:39 | 60.28133 | 23.12373 | 3050 ft | 115 kts | 283° |
| 2026-05-05 12:40 | 60.28308 | 23.10799 | 3040 ft | 114 kts | 282° |
| 2026-05-05 12:40 | 60.28484 | 23.09233 | 3048 ft | 114 kts | 282° |
| 2026-05-05 12:40 | 60.28658 | 23.07665 | 3049 ft | 115 kts | 282° |
| 2026-05-05 12:40 | 60.28837 | 23.06070 | 3055 ft | 118 kts | 282° |
| 2026-05-05 12:41 | 60.29017 | 23.04463 | 3048 ft | 118 kts | 282° |
| 2026-05-05 12:41 | 60.29197 | 23.02859 | 3052 ft | 117 kts | 282° |
| 2026-05-05 12:41 | 60.29374 | 23.01256 | 3056 ft | 118 kts | 282° |
| 2026-05-05 12:41 | 60.29546 | 22.99674 | 3047 ft | 116 kts | 281° |
| 2026-05-05 12:42 | 60.29844 | 22.98254 | 2906 ft | 114 kts | 292° |
| 2026-05-05 12:42 | 60.30248 | 22.96821 | 2800 ft | 113 kts | 296° |
| 2026-05-05 12:42 | 60.30615 | 22.95436 | 2657 ft | 115 kts | 292° |
| 2026-05-05 12:42 | 60.30995 | 22.94072 | 2786 ft | 108 kts | 300° |
| 2026-05-05 12:43 | 60.31472 | 22.92915 | 2893 ft | 109 kts | 307° |
| 2026-05-05 12:43 | 60.31907 | 22.91806 | 3053 ft | 102 kts | 300° |
| 2026-05-05 12:43 | 60.32352 | 22.90654 | 3141 ft | 105 kts | 305° |
| 2026-05-05 12:43 | 60.32801 | 22.89472 | 3249 ft | 106 kts | 306° |
| 2026-05-05 12:44 | 60.33317 | 22.88408 | 3365 ft | 105 kts | 308° |
| 2026-05-05 12:44 | 60.33831 | 22.87308 | 3338 ft | 115 kts | 308° |
| 2026-05-05 12:44 | 60.34409 | 22.86081 | 3210 ft | 122 kts | 308° |
| 2026-05-05 12:44 | 60.34966 | 22.84821 | 3208 ft | 119 kts | 308° |
| 2026-05-05 12:45 | 60.35545 | 22.83655 | 3255 ft | 117 kts | 313° |
| 2026-05-05 12:45 | 60.36133 | 22.82520 | 3231 ft | 118 kts | 309° |
| 2026-05-05 12:45 | 60.36605 | 22.81224 | 3250 ft | 111 kts | 287° |
| 2026-05-05 12:45 | 60.36754 | 22.79676 | 3171 ft | 116 kts | 278° |
| 2026-05-05 12:46 | 60.36803 | 22.78027 | 3080 ft | 120 kts | 273° |
| 2026-05-05 12:46 | 60.36811 | 22.76298 | 2918 ft | 126 kts | 271° |
| 2026-05-05 12:46 | 60.36793 | 22.74447 | 2509 ft | 138 kts | 269° |
| 2026-05-05 12:46 | 60.36782 | 22.72479 | 1965 ft | 144 kts | 272° |
| 2026-05-05 12:47 | 60.36869 | 22.70537 | 1717 ft | 135 kts | 281° |
| 2026-05-05 12:47 | 60.37064 | 22.68722 | 1630 ft | 129 kts | 283° |
| 2026-05-05 12:47 | 60.37291 | 22.67050 | 1672 ft | 120 kts | 284° |
| 2026-05-05 12:47 | 60.37512 | 22.65439 | 1686 ft | 118 kts | 286° |
| 2026-05-05 12:48 | 60.37746 | 22.63838 | 1645 ft | 117 kts | 283° |
| 2026-05-05 12:48 | 60.37934 | 22.62154 | 1450 ft | 128 kts | 280° |
| 2026-05-05 12:48 | 60.38114 | 22.60481 | 1516 ft | 118 kts | 282° |
| 2026-05-05 12:48 | 60.38313 | 22.58924 | 1536 ft | 116 kts | 284° |
| 2026-05-05 12:49 | 60.38533 | 22.57356 | 1550 ft | 115 kts | 286° |
| 2026-05-05 12:49 | 60.38770 | 22.55758 | 1383 ft | 128 kts | 287° |
| 2026-05-05 12:49 | 60.39065 | 22.54025 | 1100 ft | 129 kts | 290° |
| 2026-05-05 12:49 | 60.39386 | 22.52399 | 998 ft | 123 kts | 289° |
| 2026-05-05 12:50 | 60.39709 | 22.50786 | 967 ft | 122 kts | 294° |
| 2026-05-05 12:50 | 60.40100 | 22.49315 | 1022 ft | 119 kts | 298° |
| 2026-05-05 12:50 | 60.40549 | 22.47891 | 1032 ft | 117 kts | 303° |
| 2026-05-05 12:50 | 60.41134 | 22.46789 | 1031 ft | 120 kts | 318° |
| 2026-05-05 12:51 | 60.41802 | 22.45767 | 998 ft | 118 kts | 315° |
| 2026-05-05 12:51 | 60.42523 | 22.45031 | 1116 ft | 117 kts | 327° |
| 2026-05-05 12:51 | 60.43285 | 22.44374 | 1106 ft | 121 kts | 334° |
| 2026-05-05 12:51 | 60.44061 | 22.43699 | 1095 ft | 121 kts | 325° |
| 2026-05-05 12:52 | 60.44828 | 22.42971 | 1128 ft | 122 kts | 332° |
| 2026-05-05 12:52 | 60.45637 | 22.42425 | 1098 ft | 126 kts | 340° |
| 2026-05-05 12:52 | 60.46454 | 22.41870 | 1143 ft | 122 kts | 332° |
| 2026-05-05 12:52 | 60.47251 | 22.41303 | 1188 ft | 121 kts | 333° |
| 2026-05-05 12:53 | 60.48032 | 22.40655 | 1193 ft | 119 kts | 330° |
| 2026-05-05 12:53 | 60.48764 | 22.39904 | 1196 ft | 116 kts | 322° |
| 2026-05-05 12:53 | 60.49435 | 22.39064 | 1184 ft | 110 kts | 317° |
| 2026-05-05 12:53 | 60.49951 | 22.38176 | 1085 ft | 88 kts | 308° |
| 2026-05-05 12:54 | 60.50651 | 22.36400 | 953 ft | 75 kts | 297° |
| 2026-05-05 12:54 | 60.50917 | 22.35506 | 924 ft | 71 kts | 293° |
| 2026-05-05 12:54 | 60.51118 | 22.34636 | 833 ft | 66 kts | 285° |
| 2026-05-05 12:55 | 60.51276 | 22.33761 | 733 ft | 68 kts | 286° |
| 2026-05-05 12:55 | 60.51407 | 22.32830 | 639 ft | 69 kts | 281° |
| 2026-05-05 12:55 | 60.51513 | 22.31828 | 507 ft | 70 kts | 279° |
| 2026-05-05 12:55 | 60.51578 | 22.30867 | 443 ft | 70 kts | 273° |
| 2026-05-05 12:56 | 60.51572 | 22.29876 | 352 ft | 65 kts | 267° |
| 2026-05-05 12:56 | 60.51527 | 22.28969 | 235 ft | 62 kts | 266° |
| 2026-05-05 12:56 | 60.51490 | 22.28091 | 150 ft | 61 kts | 265° |
| 2026-05-05 12:56 | 60.51455 | 22.27272 | 145 ft | 48 kts | 266° |
| 2026-05-05 12:57 | 60.51435 | 22.26794 | 140 ft | 27 kts | 252° |
| 2026-05-05 12:57 | 60.51345 | 22.26730 | 140 ft | 11 kts | 174° |